Time;durP1;ratioP1;P1;durP2;ratioP2;P2;SDS_P1;SDS_P2;PMS_P1;PMS_P2;Temp;Humidity;BMP_temperature;BMP_pressure;BME280_temperature;BME280_humidity;BME280_pressure;Samples;Min_cycle;Max_cycle;Signal;HPM_P1;HPM_P2
2022/10/19 00:00:20;;;;;;;112.60;65.60;;;;;;;;;;5010051;28;20513;-42
2022/10/19 00:02:46;;;;;;;112.57;63.77;;;;;;;;;;5004024;28;20559;-43
2022/10/19 00:05:12;;;;;;;92.07;56.17;;;;;;;;;;5008975;28;20205;-45
2022/10/19 00:07:38;;;;;;;103.90;61.27;;;;;;;;;;5011586;28;20258;-45
2022/10/19 00:10:05;;;;;;;101.50;59.13;;;;;;;;;;5009059;28;20176;-42
2022/10/19 00:12:31;;;;;;;94.70;57.13;;;;;;;;;;5010464;28;20279;-42
2022/10/19 00:14:57;;;;;;;87.40;52.97;;;;;;;;;;5011353;28;20177;-42
2022/10/19 00:17:23;;;;;;;95.77;55.47;;;;;;;;;;5011903;28;20187;-42
2022/10/19 00:19:49;;;;;;;96.13;54.60;;;;;;;;;;5007358;28;20185;-43
2022/10/19 00:22:15;;;;;;;97.23;56.70;;;;;;;;;;5010250;28;20289;-42
2022/10/19 00:24:41;;;;;;;100.27;58.17;;;;;;;;;;5013285;28;20207;-43
2022/10/19 00:27:07;;;;;;;98.33;55.80;;;;;;;;;;5012831;28;20176;-43
2022/10/19 00:29:34;;;;;;;90.10;53.30;;;;;;;;;;5015475;28;20197;-42
2022/10/19 00:32:00;;;;;;;96.50;58.40;;;;;;;;;;5008269;28;20631;-45
2022/10/19 00:34:26;;;;;;;106.77;62.17;;;;;;;;;;5011757;28;20291;-43
2022/10/19 00:36:52;;;;;;;114.03;65.10;;;;;;;;;;5009163;28;20662;-43
2022/10/19 00:39:18;;;;;;;109.43;63.93;;;;;;;;;;5008083;28;20184;-43
2022/10/19 00:41:45;;;;;;;103.53;62.87;;;;;;;;;;5007030;28;20298;-43
2022/10/19 00:44:11;;;;;;;107.73;61.47;;;;;;;;;;5010646;28;20215;-43
2022/10/19 00:46:39;;;;;;;105.40;60.73;;;;;;;;;;5011159;28;21133;-43
2022/10/19 00:49:17;;;;;;;117.60;64.27;;;;;;;;;;5007443;28;20192;-42
2022/10/19 00:51:44;;;;;;;104.83;63.53;;;;;;;;;;5004983;28;20172;-44
2022/10/19 00:54:11;;;;;;;98.50;60.53;;;;;;;;;;5011471;28;20307;-45
2022/10/19 00:56:38;;;;;;;114.33;64.83;;;;;;;;;;5010547;28;20173;-45
2022/10/19 00:59:05;;;;;;;112.80;64.47;;;;;;;;;;5004190;28;20196;-42
2022/10/19 01:01:32;;;;;;;100.83;59.17;;;;;;;;;;5002938;28;20754;-43
2022/10/19 01:03:58;;;;;;;98.27;59.40;;;;;;;;;;5009681;28;20203;-43
2022/10/19 01:06:25;;;;;;;96.17;57.63;;;;;;;;;;5003738;28;20282;-42
2022/10/19 01:08:51;;;;;;;110.17;66.03;;;;;;;;;;5005566;28;20172;-43
2022/10/19 01:11:23;;;;;;;106.77;64.40;;;;;;;;;;5008657;28;20171;-44
2022/10/19 01:14:07;;;;;;;102.47;61.03;;;;;;;;;;5007157;28;20176;-42
2022/10/19 01:16:39;;;;;;;106.27;59.70;;;;;;;;;;5006869;28;20223;-42
2022/10/19 01:19:25;;;;;;;115.43;66.80;;;;;;;;;;5006314;28;20176;-43
2022/10/19 01:22:12;;;;;;;124.80;70.00;;;;;;;;;;5014748;28;20184;-46
2022/10/19 01:24:38;;;;;;;115.00;65.70;;;;;;;;;;5008092;28;20716;-42
2022/10/19 01:27:13;;;;;;;116.07;66.53;;;;;;;;;;5009225;28;20211;-43
2022/10/19 01:29:58;;;;;;;123.07;67.60;;;;;;;;;;5004880;28;20192;-43
2022/10/19 01:32:30;;;;;;;99.23;59.23;;;;;;;;;;5010440;28;20183;-42
2022/10/19 01:35:25;;;;;;;111.20;62.37;;;;;;;;;;5008249;28;20479;-42
2022/10/19 01:38:01;;;;;;;111.03;64.10;;;;;;;;;;5007082;28;20333;-43
2022/10/19 01:40:33;;;;;;;112.03;62.97;;;;;;;;;;5006755;28;20177;-41
2022/10/19 01:43:02;;;;;;;118.20;64.60;;;;;;;;;;5005314;28;20263;-43
2022/10/19 01:45:28;;;;;;;116.93;66.03;;;;;;;;;;5001558;28;20196;-43
2022/10/19 01:48:01;;;;;;;110.77;63.20;;;;;;;;;;5007403;28;20250;-43
2022/10/19 01:50:33;;;;;;;116.43;63.47;;;;;;;;;;5007534;28;20648;-42
2022/10/19 01:52:59;;;;;;;111.43;62.87;;;;;;;;;;5002845;28;20518;-43
2022/10/19 01:55:26;;;;;;;113.17;63.83;;;;;;;;;;5009235;28;20969;-42
2022/10/19 01:57:56;;;;;;;102.63;60.93;;;;;;;;;;5011937;28;20727;-43
2022/10/19 02:00:23;;;;;;;102.57;58.53;;;;;;;;;;5006013;28;20602;-43
2022/10/19 02:02:50;;;;;;;102.50;58.63;;;;;;;;;;5002985;28;20258;-42
2022/10/19 02:05:18;;;;;;;95.13;55.20;;;;;;;;;;5007213;28;20188;-42
2022/10/19 02:07:46;;;;;;;101.33;58.33;;;;;;;;;;5008480;28;20933;-43
2022/10/19 02:10:12;;;;;;;95.67;55.17;;;;;;;;;;5004810;28;20936;-43
2022/10/19 02:12:38;;;;;;;104.40;59.03;;;;;;;;;;5007147;28;20180;-43
2022/10/19 02:15:08;;;;;;;94.00;56.97;;;;;;;;;;5011136;28;20218;-43
2022/10/19 02:17:36;;;;;;;109.43;62.40;;;;;;;;;;5007867;28;20234;-43
2022/10/19 02:20:03;;;;;;;92.27;54.63;;;;;;;;;;5008691;28;20276;-45
2022/10/19 02:22:29;;;;;;;93.20;54.40;;;;;;;;;;5007836;28;20184;-45
2022/10/19 02:24:55;;;;;;;91.90;54.83;;;;;;;;;;5008134;28;20508;-43
2022/10/19 02:27:21;;;;;;;89.20;54.73;;;;;;;;;;5006990;28;20730;-43
2022/10/19 02:29:48;;;;;;;98.73;57.63;;;;;;;;;;5004980;28;20219;-42
2022/10/19 02:32:14;;;;;;;104.77;59.80;;;;;;;;;;5007782;28;20196;-42
2022/10/19 02:34:40;;;;;;;96.73;55.90;;;;;;;;;;5009384;28;20181;-43
2022/10/19 02:37:07;;;;;;;101.30;56.93;;;;;;;;;;5005581;28;20181;-42
2022/10/19 02:39:33;;;;;;;94.60;55.87;;;;;;;;;;5004393;28;20707;-43
2022/10/19 02:42:13;;;;;;;92.67;55.07;;;;;;;;;;5002726;28;20504;-43
2022/10/19 02:44:42;;;;;;;98.60;57.13;;;;;;;;;;5001399;28;20317;-43
2022/10/19 02:47:14;;;;;;;103.23;56.63;;;;;;;;;;5006455;28;20927;-43
2022/10/19 02:49:42;;;;;;;100.93;57.53;;;;;;;;;;5001690;28;20901;-43
2022/10/19 02:52:09;;;;;;;93.97;55.87;;;;;;;;;;5000672;28;20202;-43
2022/10/19 02:54:36;;;;;;;90.20;52.77;;;;;;;;;;5003694;28;20246;-45
2022/10/19 02:57:32;;;;;;;91.47;53.20;;;;;;;;;;5006652;28;20184;-44
2022/10/19 02:59:58;;;;;;;104.87;56.57;;;;;;;;;;5005781;28;20219;-43
2022/10/19 03:02:25;;;;;;;86.33;51.40;;;;;;;;;;4999497;28;20195;-43
2022/10/19 03:04:51;;;;;;;101.00;55.33;;;;;;;;;;5005097;28;20819;-43
2022/10/19 03:07:18;;;;;;;97.53;55.33;;;;;;;;;;5007683;28;20167;-43
2022/10/19 03:09:45;;;;;;;94.37;52.90;;;;;;;;;;5001573;28;21059;-43
2022/10/19 03:12:12;;;;;;;86.13;51.50;;;;;;;;;;5000544;28;20173;-43
2022/10/19 03:14:38;;;;;;;80.43;48.90;;;;;;;;;;5001598;28;20603;-43
2022/10/19 03:17:05;;;;;;;98.43;57.27;;;;;;;;;;5002121;28;20246;-43
2022/10/19 03:19:31;;;;;;;98.13;55.53;;;;;;;;;;5000091;28;20199;-43
2022/10/19 03:21:57;;;;;;;96.57;57.27;;;;;;;;;;5006101;28;20204;-43
2022/10/19 03:24:24;;;;;;;86.33;52.17;;;;;;;;;;5009453;28;20184;-43
2022/10/19 03:26:50;;;;;;;89.60;53.27;;;;;;;;;;5006464;28;20847;-43
2022/10/19 03:29:16;;;;;;;100.70;57.37;;;;;;;;;;4997667;28;20779;-43
2022/10/19 03:31:42;;;;;;;91.33;52.73;;;;;;;;;;5002157;28;20395;-44
2022/10/19 03:34:08;;;;;;;92.57;54.67;;;;;;;;;;5004847;28;20241;-44
2022/10/19 03:36:35;;;;;;;93.73;53.47;;;;;;;;;;5004823;28;20192;-44
2022/10/19 03:39:03;;;;;;;87.13;50.03;;;;;;;;;;5004026;28;20287;-43
2022/10/19 03:41:30;;;;;;;84.77;50.33;;;;;;;;;;5007326;28;20929;-43
2022/10/19 03:43:56;;;;;;;89.00;51.00;;;;;;;;;;5006778;28;20827;-43
2022/10/19 03:46:23;;;;;;;81.27;49.30;;;;;;;;;;5002944;28;21039;-43
2022/10/19 03:48:49;;;;;;;88.67;49.73;;;;;;;;;;5004751;28;20249;-43
2022/10/19 03:51:17;;;;;;;81.13;49.13;;;;;;;;;;5003811;28;20737;-43
2022/10/19 03:53:43;;;;;;;81.23;49.43;;;;;;;;;;5006537;28;20772;-43
2022/10/19 03:56:12;;;;;;;82.13;50.07;;;;;;;;;;5001821;28;20251;-43
2022/10/19 03:58:39;;;;;;;94.97;52.50;;;;;;;;;;5002473;28;20800;-42
2022/10/19 04:01:06;;;;;;;86.90;50.93;;;;;;;;;;5004197;28;20225;-43
2022/10/19 04:03:32;;;;;;;91.63;53.63;;;;;;;;;;5005410;28;20180;-43
2022/10/19 04:06:05;;;;;;;89.87;53.27;;;;;;;;;;5001544;28;20228;-45
2022/10/19 04:08:32;;;;;;;111.57;59.57;;;;;;;;;;5007854;28;20175;-43
2022/10/19 04:11:02;;;;;;;92.27;54.27;;;;;;;;;;5005232;28;20885;-43
2022/10/19 04:13:28;;;;;;;94.37;54.97;;;;;;;;;;5003740;28;20245;-44
2022/10/19 04:15:54;;;;;;;112.93;61.43;;;;;;;;;;5007857;28;20640;-44
2022/10/19 04:18:20;;;;;;;112.97;64.07;;;;;;;;;;5004558;28;20183;-44
2022/10/19 04:20:47;;;;;;;117.63;65.33;;;;;;;;;;5003886;28;21011;-43
2022/10/19 04:23:13;;;;;;;120.80;65.77;;;;;;;;;;5004121;28;20654;-43
2022/10/19 04:25:39;;;;;;;122.37;68.50;;;;;;;;;;5008893;28;20200;-44
2022/10/19 04:28:05;;;;;;;112.07;65.07;;;;;;;;;;5005649;28;20426;-43
2022/10/19 04:30:31;;;;;;;109.10;60.37;;;;;;;;;;5003612;28;20180;-45
2022/10/19 04:32:57;;;;;;;114.73;60.40;;;;;;;;;;5005536;28;20420;-44
2022/10/19 04:35:23;;;;;;;99.10;54.70;;;;;;;;;;5006104;28;20181;-44
2022/10/19 04:37:49;;;;;;;100.80;55.33;;;;;;;;;;5008127;28;21157;-43
2022/10/19 04:40:15;;;;;;;88.90;52.50;;;;;;;;;;5012299;28;20777;-44
2022/10/19 04:42:41;;;;;;;81.13;49.40;;;;;;;;;;5010362;28;20467;-44
2022/10/19 04:45:08;;;;;;;83.27;48.50;;;;;;;;;;5006413;28;20798;-42
2022/10/19 04:47:34;;;;;;;88.20;51.40;;;;;;;;;;5007319;28;20622;-43
2022/10/19 04:50:00;;;;;;;75.97;44.93;;;;;;;;;;5010731;28;20948;-43
2022/10/19 04:52:26;;;;;;;88.17;52.60;;;;;;;;;;5008967;28;20335;-43
2022/10/19 04:54:52;;;;;;;85.63;48.77;;;;;;;;;;5008811;28;20481;-43
2022/10/19 04:57:18;;;;;;;79.73;46.37;;;;;;;;;;5013690;28;20375;-43
2022/10/19 04:59:44;;;;;;;79.83;45.70;;;;;;;;;;5007544;28;20164;-43
2022/10/19 05:02:10;;;;;;;77.40;45.27;;;;;;;;;;5006688;28;20747;-43
2022/10/19 05:04:36;;;;;;;76.00;44.03;;;;;;;;;;5010205;28;20209;-45
2022/10/19 05:07:02;;;;;;;84.50;47.27;;;;;;;;;;5007933;28;20490;-43
2022/10/19 05:09:28;;;;;;;77.40;46.00;;;;;;;;;;5008571;28;20270;-42
2022/10/19 05:11:54;;;;;;;78.53;46.60;;;;;;;;;;5005436;28;20689;-43
2022/10/19 05:14:20;;;;;;;83.30;48.43;;;;;;;;;;5004557;28;20597;-42
2022/10/19 05:16:47;;;;;;;80.67;47.07;;;;;;;;;;5007260;28;20173;-43
2022/10/19 05:19:13;;;;;;;77.43;45.47;;;;;;;;;;5010239;28;20574;-43
2022/10/19 05:21:39;;;;;;;76.53;43.97;;;;;;;;;;5006494;28;20177;-43
2022/10/19 05:24:05;;;;;;;84.63;48.27;;;;;;;;;;5006451;28;20597;-43
2022/10/19 05:26:32;;;;;;;72.87;43.17;;;;;;;;;;5008600;28;20199;-43
2022/10/19 05:29:03;;;;;;;73.77;44.47;;;;;;;;;;5011522;28;20180;-43
2022/10/19 05:31:30;;;;;;;76.27;44.87;;;;;;;;;;5008198;28;20657;-45
2022/10/19 05:33:57;;;;;;;85.57;47.37;;;;;;;;;;5002957;28;20180;-45
2022/10/19 05:36:27;;;;;;;93.70;51.63;;;;;;;;;;5007386;28;20183;-45
2022/10/19 05:38:55;;;;;;;102.00;55.87;;;;;;;;;;5003187;28;20180;-45
2022/10/19 05:41:22;;;;;;;88.97;51.30;;;;;;;;;;5001502;28;20273;-43
2022/10/19 05:43:52;;;;;;;97.23;54.57;;;;;;;;;;5005392;28;20787;-43
2022/10/19 05:46:18;;;;;;;119.70;66.90;;;;;;;;;;5010411;28;20188;-42
2022/10/19 05:48:45;;;;;;;121.70;67.93;;;;;;;;;;5004978;28;20283;-43
2022/10/19 05:51:12;;;;;;;141.60;75.03;;;;;;;;;;5004311;28;20211;-44
2022/10/19 05:53:39;;;;;;;127.30;68.73;;;;;;;;;;5007954;28;20452;-44
2022/10/19 05:56:06;;;;;;;126.17;70.07;;;;;;;;;;5008834;28;20704;-43
2022/10/19 05:58:32;;;;;;;117.10;64.20;;;;;;;;;;5004158;28;20184;-43
2022/10/19 06:00:59;;;;;;;131.67;66.07;;;;;;;;;;5006497;28;20631;-43
2022/10/19 06:03:25;;;;;;;125.30;65.80;;;;;;;;;;5007873;28;20225;-42
2022/10/19 06:05:52;;;;;;;112.60;62.97;;;;;;;;;;5009003;28;20200;-43
2022/10/19 06:08:18;;;;;;;124.63;64.20;;;;;;;;;;5010908;28;20184;-43
2022/10/19 06:10:45;;;;;;;111.30;62.43;;;;;;;;;;5006436;28;20185;-42
2022/10/19 06:13:12;;;;;;;135.30;72.73;;;;;;;;;;5007519;28;20189;-44
2022/10/19 06:15:39;;;;;;;126.40;70.97;;;;;;;;;;5007095;28;20272;-44
2022/10/19 06:18:14;;;;;;;144.60;74.73;;;;;;;;;;5005728;28;20208;-44
2022/10/19 06:20:41;;;;;;;141.00;74.27;;;;;;;;;;5011229;28;20184;-44
2022/10/19 06:23:08;;;;;;;125.50;71.00;;;;;;;;;;5007539;28;20198;-44
2022/10/19 06:25:36;;;;;;;130.17;70.63;;;;;;;;;;5006479;28;20778;-45
2022/10/19 06:28:02;;;;;;;127.27;69.60;;;;;;;;;;5006924;28;20179;-44
2022/10/19 06:30:28;;;;;;;128.17;71.17;;;;;;;;;;5009531;28;20180;-46
2022/10/19 06:32:54;;;;;;;134.93;71.73;;;;;;;;;;5003659;28;20898;-43
2022/10/19 06:35:20;;;;;;;123.00;66.80;;;;;;;;;;5002826;28;20887;-43
2022/10/19 06:37:47;;;;;;;121.90;62.97;;;;;;;;;;5004536;28;20605;-44
2022/10/19 06:40:13;;;;;;;100.37;57.63;;;;;;;;;;5009975;28;20177;-43
2022/10/19 06:42:39;;;;;;;98.63;57.97;;;;;;;;;;5008315;28;20932;-44
2022/10/19 06:45:09;;;;;;;110.13;60.67;;;;;;;;;;5003857;28;20267;-43
2022/10/19 06:47:36;;;;;;;110.47;62.20;;;;;;;;;;5003435;28;20605;-44
2022/10/19 06:50:03;;;;;;;125.73;69.07;;;;;;;;;;5004477;28;20796;-43
2022/10/19 06:52:29;;;;;;;124.47;66.50;;;;;;;;;;5003017;28;20265;-43
2022/10/19 06:54:55;;;;;;;123.97;68.90;;;;;;;;;;5008075;28;20282;-43
2022/10/19 06:57:22;;;;;;;130.60;72.73;;;;;;;;;;5007026;28;20406;-43
2022/10/19 06:59:48;;;;;;;129.07;71.37;;;;;;;;;;5000987;28;20282;-43
2022/10/19 07:02:14;;;;;;;115.27;65.13;;;;;;;;;;5006408;28;20830;-43
2022/10/19 07:04:40;;;;;;;116.83;65.33;;;;;;;;;;5003655;28;20219;-43
2022/10/19 07:07:06;;;;;;;107.53;63.17;;;;;;;;;;5004238;28;20179;-44
2022/10/19 07:09:32;;;;;;;105.13;60.50;;;;;;;;;;5007427;28;20720;-43
2022/10/19 07:11:58;;;;;;;98.83;55.07;;;;;;;;;;5009400;28;20263;-43
2022/10/19 07:14:27;;;;;;;89.37;50.50;;;;;;;;;;5006140;28;20489;-43
2022/10/19 07:16:53;;;;;;;75.20;45.17;;;;;;;;;;5008520;28;20180;-43
2022/10/19 07:19:19;;;;;;;75.90;43.90;;;;;;;;;;5010778;28;20734;-43
2022/10/19 07:21:45;;;;;;;78.00;44.37;;;;;;;;;;5006241;28;20257;-43
2022/10/19 07:24:11;;;;;;;81.73;49.07;;;;;;;;;;5005498;28;20199;-43
2022/10/19 07:26:37;;;;;;;82.77;45.13;;;;;;;;;;5008861;28;20656;-43
2022/10/19 07:29:04;;;;;;;88.27;46.27;;;;;;;;;;5003732;28;20215;-43
2022/10/19 07:31:30;;;;;;;81.17;46.43;;;;;;;;;;5004110;28;20667;-43
2022/10/19 07:33:57;;;;;;;67.00;40.13;;;;;;;;;;5008695;28;20173;-44
2022/10/19 07:36:24;;;;;;;68.73;41.30;;;;;;;;;;5001730;28;20430;-44
2022/10/19 07:38:50;;;;;;;66.63;40.47;;;;;;;;;;5002338;28;20181;-44
2022/10/19 07:41:17;;;;;;;58.07;36.97;;;;;;;;;;5006401;28;20222;-43
2022/10/19 07:43:44;;;;;;;69.13;40.87;;;;;;;;;;5003910;28;20233;-43
2022/10/19 07:46:12;;;;;;;64.37;38.77;;;;;;;;;;5005465;28;20192;-43
2022/10/19 07:48:38;;;;;;;62.67;39.50;;;;;;;;;;5006115;28;20892;-42
2022/10/19 07:51:05;;;;;;;62.07;37.30;;;;;;;;;;5004442;28;20184;-43
2022/10/19 07:53:32;;;;;;;58.57;37.13;;;;;;;;;;5002410;28;20647;-43
2022/10/19 07:56:04;;;;;;;61.73;37.37;;;;;;;;;;5006593;28;20192;-44
2022/10/19 07:58:30;;;;;;;56.27;36.00;;;;;;;;;;5007259;28;20175;-43
2022/10/19 08:01:04;;;;;;;60.20;38.20;;;;;;;;;;5002213;28;20952;-44
2022/10/19 08:03:31;;;;;;;55.40;34.77;;;;;;;;;;5001797;28;20959;-46
2022/10/19 08:06:00;;;;;;;65.77;36.40;;;;;;;;;;5004414;28;20193;-43
2022/10/19 08:08:27;;;;;;;56.47;34.20;;;;;;;;;;5007143;28;20187;-43
2022/10/19 08:10:53;;;;;;;54.17;34.87;;;;;;;;;;5004953;28;20437;-43
2022/10/19 08:13:19;;;;;;;49.47;32.30;;;;;;;;;;5006951;28;20841;-43
2022/10/19 08:15:45;;;;;;;55.13;34.93;;;;;;;;;;5011716;28;20204;-43
2022/10/19 08:18:11;;;;;;;57.57;34.77;;;;;;;;;;5007485;28;20188;-44
2022/10/19 08:20:40;;;;;;;54.10;34.83;;;;;;;;;;5006808;28;20909;-43
2022/10/19 08:23:06;;;;;;;57.20;36.67;;;;;;;;;;5011156;28;20639;-43
2022/10/19 08:25:32;;;;;;;54.73;36.47;;;;;;;;;;5006366;28;20223;-43
2022/10/19 08:27:58;;;;;;;52.37;33.97;;;;;;;;;;5005665;28;20176;-44
2022/10/19 08:30:24;;;;;;;51.43;34.87;;;;;;;;;;5009033;28;20605;-44
2022/10/19 08:32:50;;;;;;;54.67;35.00;;;;;;;;;;5009645;28;20483;-43
2022/10/19 08:35:16;;;;;;;58.53;36.87;;;;;;;;;;5007784;28;20180;-44
2022/10/19 08:37:42;;;;;;;51.67;33.10;;;;;;;;;;5008252;28;20181;-43
2022/10/19 08:40:20;;;;;;;51.23;35.17;;;;;;;;;;5010850;28;21039;-44
2022/10/19 08:42:49;;;;;;;56.63;38.07;;;;;;;;;;5009041;28;20882;-44
2022/10/19 08:45:18;;;;;;;55.07;37.77;;;;;;;;;;5007098;28;20212;-44
2022/10/19 08:47:50;;;;;;;54.50;38.07;;;;;;;;;;5009544;28;20894;-44
2022/10/19 08:50:24;;;;;;;54.87;37.20;;;;;;;;;;5010483;28;20187;-43
2022/10/19 08:52:57;;;;;;;56.77;37.17;;;;;;;;;;5007701;28;20172;-43
2022/10/19 08:55:28;;;;;;;56.33;36.97;;;;;;;;;;5007904;28;20184;-43
2022/10/19 08:57:59;;;;;;;53.20;35.60;;;;;;;;;;5012123;28;20261;-43
2022/10/19 09:00:35;;;;;;;51.40;36.40;;;;;;;;;;5007550;28;20176;-43
2022/10/19 09:03:24;;;;;;;55.00;36.70;;;;;;;;;;5006958;28;20797;-43
2022/10/19 09:05:53;;;;;;;58.37;38.97;;;;;;;;;;5010110;28;20211;-43
2022/10/19 09:08:19;;;;;;;51.40;36.67;;;;;;;;;;5010881;28;20431;-43
2022/10/19 09:10:46;;;;;;;55.20;38.40;;;;;;;;;;5005514;28;20207;-43
2022/10/19 09:13:25;;;;;;;64.03;42.73;;;;;;;;;;5008282;28;20180;-43
2022/10/19 09:15:54;;;;;;;66.67;45.43;;;;;;;;;;5008049;28;20189;-43
2022/10/19 09:18:23;;;;;;;65.63;43.30;;;;;;;;;;5011902;28;20193;-43
2022/10/19 09:20:50;;;;;;;62.30;41.17;;;;;;;;;;5007729;28;20861;-43
2022/10/19 09:23:17;;;;;;;66.57;45.47;;;;;;;;;;5009498;28;20188;-43
2022/10/19 09:25:43;;;;;;;64.50;41.93;;;;;;;;;;5010820;28;20192;-43
2022/10/19 09:28:17;;;;;;;69.00;45.40;;;;;;;;;;5009575;28;20797;-43
2022/10/19 09:30:44;;;;;;;76.77;50.07;;;;;;;;;;5002838;28;20192;-43
2022/10/19 09:33:19;;;;;;;77.73;49.17;;;;;;;;;;5008710;28;20202;-43
2022/10/19 09:35:46;;;;;;;70.73;48.67;;;;;;;;;;5009008;28;20214;-44
2022/10/19 09:38:15;;;;;;;74.97;47.83;;;;;;;;;;5008016;28;20399;-43
2022/10/19 09:40:42;;;;;;;71.70;48.30;;;;;;;;;;5011046;28;20498;-43
2022/10/19 09:43:18;;;;;;;72.43;50.20;;;;;;;;;;5008851;28;20180;-44
2022/10/19 09:46:03;;;;;;;70.93;48.33;;;;;;;;;;5007926;28;20552;-43
2022/10/19 09:48:31;;;;;;;74.90;50.17;;;;;;;;;;5011923;28;20295;-43
2022/10/19 09:50:59;;;;;;;76.83;48.60;;;;;;;;;;5010425;28;20697;-43
2022/10/19 09:53:25;;;;;;;71.30;49.63;;;;;;;;;;5006118;28;20176;-43
2022/10/19 09:55:57;;;;;;;70.83;47.13;;;;;;;;;;5007749;28;20284;-44
2022/10/19 09:58:25;;;;;;;74.17;47.47;;;;;;;;;;5010513;28;21008;-44
2022/10/19 10:00:55;;;;;;;67.50;45.77;;;;;;;;;;5011586;28;20200;-43
2022/10/19 10:03:25;;;;;;;80.57;51.20;;;;;;;;;;5007720;28;20295;-43
2022/10/19 10:05:52;;;;;;;77.03;49.03;;;;;;;;;;5007439;28;20311;-43
2022/10/19 10:08:20;;;;;;;88.70;53.57;;;;;;;;;;5011031;28;20878;-43
2022/10/19 10:10:59;;;;;;;73.70;50.57;;;;;;;;;;5009888;28;20279;-43
2022/10/19 10:13:26;;;;;;;69.13;46.27;;;;;;;;;;5005992;28;20219;-43
2022/10/19 10:15:57;;;;;;;77.80;51.83;;;;;;;;;;5007042;28;20214;-44
2022/10/19 10:18:24;;;;;;;79.23;52.13;;;;;;;;;;5011370;28;20184;-43
2022/10/19 10:20:59;;;;;;;75.10;50.63;;;;;;;;;;5007485;28;20223;-44
2022/10/19 10:23:27;;;;;;;71.93;48.97;;;;;;;;;;5005016;28;20525;-44
2022/10/19 10:25:57;;;;;;;72.37;50.10;;;;;;;;;;5010225;28;20207;-43
2022/10/19 10:28:27;;;;;;;66.77;46.33;;;;;;;;;;5011944;28;20169;-43
2022/10/19 10:31:04;;;;;;;79.20;52.03;;;;;;;;;;5008646;28;20181;-43
2022/10/19 10:33:32;;;;;;;77.17;52.53;;;;;;;;;;5007078;28;20469;-43
2022/10/19 10:36:02;;;;;;;84.63;55.50;;;;;;;;;;5010832;28;20738;-43
2022/10/19 10:38:36;;;;;;;78.83;52.13;;;;;;;;;;5007304;28;20180;-43
2022/10/19 10:41:07;;;;;;;80.33;52.30;;;;;;;;;;5008686;28;20923;-43
2022/10/19 10:43:34;;;;;;;89.90;54.93;;;;;;;;;;5006843;28;20172;-43
2022/10/19 10:46:05;;;;;;;82.70;51.70;;;;;;;;;;5011430;28;20422;-43
2022/10/19 10:48:38;;;;;;;80.20;53.50;;;;;;;;;;5005580;28;20278;-44
2022/10/19 10:51:08;;;;;;;83.17;52.47;;;;;;;;;;5004195;28;20538;-44
2022/10/19 10:53:44;;;;;;;77.77;53.63;;;;;;;;;;5009924;28;20286;-43
2022/10/19 10:56:27;;;;;;;80.07;51.10;;;;;;;;;;5009750;28;20192;-45
2022/10/19 10:58:53;;;;;;;79.73;52.03;;;;;;;;;;5005112;28;20408;-46
2022/10/19 11:01:23;;;;;;;78.03;51.67;;;;;;;;;;5007781;28;20835;-42
2022/10/19 11:03:57;;;;;;;72.93;50.63;;;;;;;;;;5006437;28;20542;-45
2022/10/19 11:06:25;;;;;;;80.43;52.90;;;;;;;;;;5007742;28;20303;-45
2022/10/19 11:08:55;;;;;;;70.50;48.67;;;;;;;;;;5006272;28;20599;-45
2022/10/19 11:11:31;;;;;;;77.40;52.17;;;;;;;;;;5007986;28;20181;-46
2022/10/19 11:14:16;;;;;;;74.37;50.63;;;;;;;;;;5011916;28;20536;-43
2022/10/19 11:16:44;;;;;;;75.53;50.23;;;;;;;;;;5005949;28;20639;-43
2022/10/19 11:19:17;;;;;;;80.93;50.10;;;;;;;;;;5006841;28;20953;-44
2022/10/19 11:21:52;;;;;;;75.23;50.43;;;;;;;;;;5010561;28;20192;-46
2022/10/19 11:24:30;;;;;;;66.07;45.13;;;;;;;;;;5009189;28;20833;-44
2022/10/19 11:27:15;;;;;;;71.77;48.13;;;;;;;;;;5005331;28;20378;-44
2022/10/19 11:30:00;;;;;;;67.17;45.00;;;;;;;;;;5013190;28;20715;-45
2022/10/19 11:32:32;;;;;;;74.43;48.53;;;;;;;;;;5008235;28;20184;-44
2022/10/19 11:35:17;;;;;;;72.83;49.23;;;;;;;;;;5003705;28;20578;-44
2022/10/19 11:37:53;;;;;;;67.80;45.80;;;;;;;;;;5007256;28;20667;-44
2022/10/19 11:40:31;;;;;;;70.73;48.10;;;;;;;;;;5008476;28;20172;-44
2022/10/19 11:43:05;;;;;;;66.43;47.07;;;;;;;;;;5007786;28;20649;-44
2022/10/19 11:45:31;;;;;;;76.13;50.50;;;;;;;;;;5009249;28;20578;-44
2022/10/19 11:48:06;;;;;;;65.43;46.17;;;;;;;;;;5009927;28;20181;-45
2022/10/19 11:50:51;;;;;;;75.10;48.47;;;;;;;;;;5007970;28;20174;-43
2022/10/19 11:53:23;;;;;;;75.73;51.03;;;;;;;;;;5012589;28;20173;-45
2022/10/19 11:55:49;;;;;;;77.07;51.60;;;;;;;;;;5013497;28;20238;-44
2022/10/19 11:58:28;;;;;;;70.97;48.33;;;;;;;;;;5013688;28;20195;-45
2022/10/19 12:01:20;;;;;;;67.07;48.20;;;;;;;;;;5005984;28;21069;-44
2022/10/19 12:03:55;;;;;;;68.53;49.83;;;;;;;;;;5004186;28;20398;-44
2022/10/19 12:06:21;;;;;;;72.20;50.37;;;;;;;;;;5011597;28;20779;-43
2022/10/19 12:08:55;;;;;;;74.63;51.63;;;;;;;;;;5009454;28;20192;-42
2022/10/19 12:11:24;;;;;;;71.50;48.83;;;;;;;;;;5014553;28;20461;-43
2022/10/19 12:13:54;;;;;;;62.87;44.90;;;;;;;;;;5011360;28;20180;-43
2022/10/19 12:16:21;;;;;;;69.60;46.83;;;;;;;;;;5011394;28;20487;-43
2022/10/19 12:18:47;;;;;;;70.20;48.37;;;;;;;;;;5009104;28;20792;-43
2022/10/19 12:21:33;;;;;;;69.20;48.00;;;;;;;;;;5008087;28;20492;-43
2022/10/19 12:24:01;;;;;;;71.53;48.30;;;;;;;;;;5006078;28;20202;-44
2022/10/19 12:26:29;;;;;;;70.90;47.07;;;;;;;;;;5007962;28;20196;-43
2022/10/19 12:28:58;;;;;;;67.90;45.90;;;;;;;;;;5012011;28;20441;-43
2022/10/19 12:31:25;;;;;;;68.77;45.23;;;;;;;;;;5012175;28;20180;-43
2022/10/19 12:33:54;;;;;;;70.67;46.50;;;;;;;;;;5009670;28;20223;-43
2022/10/19 12:36:34;;;;;;;66.77;45.70;;;;;;;;;;5009286;28;20584;-43
2022/10/19 12:39:14;;;;;;;62.33;45.67;;;;;;;;;;5012664;28;20184;-43
2022/10/19 12:41:59;;;;;;;52.77;37.53;;;;;;;;;;5009910;28;20506;-45
2022/10/19 12:44:43;;;;;;;66.37;45.13;;;;;;;;;;5006655;28;20184;-43
2022/10/19 12:47:11;;;;;;;63.87;44.50;;;;;;;;;;5011160;28;20326;-44
2022/10/19 12:49:51;;;;;;;68.20;46.17;;;;;;;;;;5011779;28;20268;-43
2022/10/19 12:52:37;;;;;;;63.60;43.70;;;;;;;;;;5012508;28;20181;-44
2022/10/19 12:55:15;;;;;;;60.23;40.93;;;;;;;;;;5011618;28;20176;-43
2022/10/19 12:57:49;;;;;;;58.77;41.50;;;;;;;;;;5010873;28;21013;-44
2022/10/19 13:00:26;;;;;;;66.03;44.30;;;;;;;;;;5012130;28;21041;-43
2022/10/19 13:02:57;;;;;;;63.17;41.40;;;;;;;;;;5009655;28;20281;-44
2022/10/19 13:05:24;;;;;;;59.07;41.53;;;;;;;;;;5009505;28;20989;-44
2022/10/19 13:07:51;;;;;;;66.87;42.87;;;;;;;;;;5012942;28;21052;-44
2022/10/19 13:10:24;;;;;;;54.77;39.53;;;;;;;;;;5006587;28;20196;-44
2022/10/19 13:12:50;;;;;;;65.60;44.60;;;;;;;;;;5009380;28;20182;-43
2022/10/19 13:15:35;;;;;;;61.80;40.73;;;;;;;;;;5009500;28;20192;-44
2022/10/19 13:18:05;;;;;;;69.67;46.03;;;;;;;;;;5010444;28;20188;-44
2022/10/19 13:20:32;;;;;;;63.20;44.00;;;;;;;;;;5006972;28;21206;-44
2022/10/19 13:23:02;;;;;;;59.93;40.43;;;;;;;;;;5008084;28;20192;-45
2022/10/19 13:25:29;;;;;;;64.07;41.60;;;;;;;;;;5010298;28;20191;-45
2022/10/19 13:27:55;;;;;;;56.73;37.83;;;;;;;;;;5009680;28;20765;-44
2022/10/19 13:30:45;;;;;;;50.37;35.17;;;;;;;;;;5005276;28;20192;-42
2022/10/19 13:33:23;;;;;;;50.27;34.43;;;;;;;;;;5008219;28;21026;-43
2022/10/19 13:35:59;;;;;;;45.47;31.37;;;;;;;;;;5011001;28;20230;-44
2022/10/19 13:38:31;;;;;;;52.10;37.87;;;;;;;;;;5008690;28;20179;-43
2022/10/19 13:41:02;;;;;;;51.37;34.50;;;;;;;;;;5007018;28;20173;-43
2022/10/19 13:43:37;;;;;;;49.70;36.37;;;;;;;;;;5008382;28;20735;-43
2022/10/19 13:46:03;;;;;;;56.43;35.90;;;;;;;;;;5006965;28;20226;-43
2022/10/19 13:48:38;;;;;;;46.37;35.27;;;;;;;;;;5001297;28;20183;-43
2022/10/19 13:51:20;;;;;;;50.83;35.73;;;;;;;;;;5002475;28;20364;-43
2022/10/19 13:54:00;;;;;;;49.03;34.13;;;;;;;;;;5001384;28;20207;-44
2022/10/19 13:56:48;;;;;;;49.50;34.53;;;;;;;;;;4994065;28;20176;-43
2022/10/19 13:59:22;;;;;;;47.97;35.27;;;;;;;;;;5004982;28;20961;-43
2022/10/19 14:02:16;;;;;;;51.70;34.53;;;;;;;;;;5009072;28;20185;-43
2022/10/19 14:04:48;;;;;;;49.90;34.23;;;;;;;;;;5009364;28;20188;-43
2022/10/19 14:07:24;;;;;;;43.23;30.83;;;;;;;;;;5008085;28;20235;-43
2022/10/19 14:10:03;;;;;;;45.33;32.00;;;;;;;;;;5008863;28;20609;-43
2022/10/19 14:12:30;;;;;;;41.73;29.83;;;;;;;;;;5002636;28;20593;-43
2022/10/19 14:14:57;;;;;;;46.90;32.33;;;;;;;;;;5002402;28;20189;-45
2022/10/19 14:17:26;;;;;;;47.33;31.50;;;;;;;;;;5006841;28;20177;-43
2022/10/19 14:19:53;;;;;;;50.43;33.67;;;;;;;;;;5007163;28;20632;-43
2022/10/19 14:22:25;;;;;;;43.03;33.37;;;;;;;;;;5004915;28;20231;-43
2022/10/19 14:24:51;;;;;;;48.20;35.70;;;;;;;;;;5008285;28;20278;-43
2022/10/19 14:27:24;;;;;;;44.83;32.53;;;;;;;;;;5009019;28;20235;-43